createdAt,value
2017-10-20T00:00:42.359Z,5.10
2017-10-20T00:03:14.700Z,5.43
2017-10-20T00:05:47.010Z,4.53
2017-10-20T00:08:18.829Z,12.43
2017-10-20T00:10:50.919Z,5.00
2017-10-20T00:13:22.938Z,4.97
2017-10-20T00:15:54.814Z,5.03
2017-10-20T00:18:27.118Z,4.73
2017-10-20T00:20:59.137Z,4.90
2017-10-20T00:23:31.068Z,5.70
2017-10-20T00:26:03.020Z,4.80
2017-10-20T00:28:34.906Z,8.67
2017-10-20T00:31:06.824Z,5.10
2017-10-20T00:33:38.788Z,5.20
2017-10-20T00:36:10.638Z,5.53
2017-10-20T00:38:42.650Z,4.77
2017-10-20T00:41:14.795Z,4.93
2017-10-20T00:43:46.698Z,4.50
2017-10-20T00:46:18.567Z,4.80
2017-10-20T00:48:51.711Z,4.97
2017-10-20T00:51:23.741Z,5.63
2017-10-20T00:53:55.559Z,4.90
2017-10-20T00:56:27.460Z,4.90
2017-10-20T00:59:00.367Z,4.57
2017-10-20T01:01:32.505Z,4.50
2017-10-20T01:04:04.546Z,5.73
2017-10-20T01:06:36.802Z,4.80
2017-10-20T01:09:08.583Z,4.53
2017-10-20T01:11:40.530Z,5.87
2017-10-20T01:14:12.417Z,4.73
2017-10-20T01:16:44.300Z,5.80
2017-10-20T01:19:16.341Z,5.03
2017-10-20T01:21:48.472Z,5.53
2017-10-20T01:24:20.567Z,5.47
2017-10-20T01:26:52.661Z,5.47
2017-10-20T01:29:24.792Z,6.20
2017-10-20T01:31:56.943Z,4.97
2017-10-20T01:34:29.286Z,5.80
2017-10-20T01:37:01.602Z,6.50
2017-10-20T01:39:48.227Z,4.97
2017-10-20T01:42:21.637Z,5.03
2017-10-20T01:44:53.621Z,5.73
2017-10-20T01:47:25.774Z,5.90
2017-10-20T01:49:57.643Z,6.50
2017-10-20T01:52:29.804Z,6.10
2017-10-20T01:55:02.024Z,6.07
2017-10-20T01:57:33.987Z,6.80
2017-10-20T02:00:05.792Z,5.67
2017-10-20T02:02:38.082Z,6.60
2017-10-20T02:05:10.357Z,6.37
2017-10-20T02:07:42.454Z,6.67
2017-10-20T02:10:14.312Z,6.50
2017-10-20T02:12:46.345Z,5.97
2017-10-20T02:15:18.121Z,6.60
2017-10-20T02:17:50.190Z,6.23
2017-10-20T02:20:21.998Z,7.03
2017-10-20T02:22:53.838Z,5.20
2017-10-20T02:25:25.976Z,6.50
2017-10-20T02:27:57.959Z,6.80
2017-10-20T02:30:29.737Z,6.47
2017-10-20T02:33:02.981Z,6.13
2017-10-20T02:35:34.938Z,6.17
2017-10-20T02:38:06.931Z,6.50
2017-10-20T02:40:39.123Z,6.60
2017-10-20T02:43:11.178Z,6.30
2017-10-20T02:45:43.128Z,6.30
2017-10-20T02:48:15.059Z,6.37
2017-10-20T02:50:47.009Z,6.40
2017-10-20T02:53:19.180Z,6.80
2017-10-20T02:55:50.986Z,6.47
2017-10-20T02:58:23.171Z,6.47
2017-10-20T03:00:55.253Z,7.00
2017-10-20T03:03:26.959Z,6.10
2017-10-20T03:05:59.071Z,6.50
2017-10-20T03:08:31.018Z,5.57
2017-10-20T03:11:02.904Z,6.93
2017-10-20T03:13:35.086Z,6.90
2017-10-20T03:16:07.113Z,6.80
2017-10-20T03:18:39.021Z,6.67
2017-10-20T03:21:10.808Z,5.83
2017-10-20T03:23:42.800Z,6.10
2017-10-20T03:26:14.589Z,5.33
2017-10-20T03:28:46.679Z,6.10
2017-10-20T03:31:18.410Z,6.07
2017-10-20T03:33:50.605Z,6.20
2017-10-20T03:36:22.601Z,5.97
2017-10-20T03:38:54.652Z,5.30
2017-10-20T03:41:26.407Z,5.10
2017-10-20T03:43:58.425Z,5.77
2017-10-20T03:46:30.568Z,5.83
2017-10-20T03:49:02.651Z,6.03
2017-10-20T03:51:34.593Z,5.37
2017-10-20T03:54:06.525Z,5.80
2017-10-20T03:56:38.441Z,5.13
2017-10-20T03:59:10.574Z,5.43
2017-10-20T04:01:42.710Z,6.07
2017-10-20T04:04:14.515Z,5.10
2017-10-20T04:06:46.691Z,5.43
2017-10-20T04:09:18.695Z,5.87
2017-10-20T04:11:50.530Z,5.43
2017-10-20T04:14:22.478Z,5.80
2017-10-20T04:16:54.810Z,5.37
2017-10-20T04:19:26.903Z,6.50
2017-10-20T04:21:58.837Z,5.23
2017-10-20T04:24:30.818Z,5.70
2017-10-20T04:27:02.976Z,5.90
2017-10-20T04:29:35.168Z,5.60
2017-10-20T04:32:07.259Z,6.17
2017-10-20T04:34:39.342Z,6.17
2017-10-20T04:37:11.453Z,6.30
2017-10-20T04:39:43.190Z,5.50
2017-10-20T04:42:15.883Z,6.83
2017-10-20T04:44:47.872Z,6.20
2017-10-20T04:47:19.662Z,5.50
2017-10-20T04:49:51.672Z,6.97
2017-10-20T04:52:23.657Z,6.27
2017-10-20T04:54:55.672Z,7.00
2017-10-20T04:57:27.405Z,5.70
2017-10-20T04:59:59.350Z,6.03
2017-10-20T05:02:31.230Z,6.50
2017-10-20T05:05:03.261Z,7.07
2017-10-20T05:07:35.383Z,6.43
2017-10-20T05:10:07.338Z,5.70
2017-10-20T05:12:40.255Z,6.60
2017-10-20T05:15:12.051Z,5.90
2017-10-20T05:17:44.822Z,6.30
2017-10-20T05:20:16.684Z,5.97
2017-10-20T05:22:48.587Z,6.43
2017-10-20T05:25:20.405Z,6.30
2017-10-20T05:27:53.739Z,6.27
2017-10-20T05:30:25.660Z,5.93
2017-10-20T05:32:57.686Z,6.40
2017-10-20T05:35:29.772Z,5.57
2017-10-20T05:38:02.711Z,5.80
2017-10-20T05:40:34.637Z,5.60
2017-10-20T05:43:06.492Z,6.10
2017-10-20T05:45:39.448Z,6.47
2017-10-20T05:48:11.656Z,5.80
2017-10-20T05:50:43.901Z,6.80
2017-10-20T05:53:15.673Z,5.10
2017-10-20T05:55:47.319Z,6.10
2017-10-20T05:58:19.411Z,5.80
2017-10-20T06:00:51.403Z,6.60
2017-10-20T06:03:23.335Z,5.83
2017-10-20T06:05:55.285Z,5.00
2017-10-20T06:08:28.268Z,6.20
2017-10-20T06:11:00.600Z,5.63
2017-10-20T06:13:32.245Z,6.17
2017-10-20T06:16:04.254Z,6.20
2017-10-20T06:18:36.333Z,5.97
2017-10-20T06:21:08.207Z,6.13
2017-10-20T06:23:40.286Z,5.70
2017-10-20T06:29:35.404Z,6.70
2017-10-20T06:32:08.525Z,6.07
2017-10-20T06:34:41.508Z,6.10
2017-10-20T06:37:14.363Z,6.03
2017-10-20T06:39:46.268Z,6.90
2017-10-20T06:42:32.333Z,6.10
2017-10-20T06:45:04.480Z,6.20
2017-10-20T06:47:36.250Z,6.23
2017-10-20T06:50:08.372Z,7.13
2017-10-20T06:52:40.354Z,7.13
2017-10-20T06:55:12.538Z,7.30
2017-10-20T06:57:44.404Z,5.53
2017-10-20T07:00:16.297Z,6.23
2017-10-20T07:02:48.178Z,6.30
2017-10-20T07:05:20.216Z,6.20
2017-10-20T07:07:52.347Z,6.43
2017-10-20T07:10:24.645Z,5.37
2017-10-20T07:12:56.589Z,5.97
2017-10-20T07:15:28.496Z,5.83
2017-10-20T07:18:07.145Z,5.30
2017-10-20T07:20:51.909Z,5.97
2017-10-20T07:23:23.813Z,6.00
2017-10-20T07:25:55.813Z,6.83
2017-10-20T07:28:27.683Z,5.40
2017-10-20T07:30:59.732Z,6.37
2017-10-20T07:33:31.774Z,6.10
2017-10-20T07:36:03.498Z,7.20
2017-10-20T07:38:35.274Z,6.27
2017-10-20T07:41:07.290Z,6.97
2017-10-20T07:43:39.169Z,6.07
2017-10-20T07:46:10.911Z,5.97
2017-10-20T07:48:42.681Z,5.80
2017-10-20T07:51:14.558Z,5.70
2017-10-20T07:53:46.559Z,5.20
2017-10-20T07:56:18.552Z,5.40
2017-10-20T07:58:50.362Z,5.80
2017-10-20T08:01:22.428Z,5.20
2017-10-20T08:03:54.376Z,5.37
2017-10-20T08:06:26.185Z,5.20
2017-10-20T08:08:57.942Z,5.37
2017-10-20T08:11:30.257Z,5.30
2017-10-20T08:14:02.675Z,5.80
2017-10-20T08:16:34.733Z,4.87
2017-10-20T08:19:06.514Z,6.30
2017-10-20T08:21:38.442Z,5.73
2017-10-20T08:24:10.338Z,5.53
2017-10-20T08:26:42.336Z,4.40
2017-10-20T08:29:15.319Z,5.27
2017-10-20T08:31:47.363Z,5.57
2017-10-20T08:34:19.253Z,5.40
2017-10-20T08:36:51.128Z,5.50
2017-10-20T08:39:24.136Z,4.47
2017-10-20T08:41:56.056Z,5.07
2017-10-20T08:44:27.986Z,5.47
2017-10-20T08:46:59.964Z,6.00
2017-10-20T08:49:31.906Z,6.03
2017-10-20T08:52:03.975Z,5.27
2017-10-20T08:54:35.445Z,5.67
2017-10-20T08:57:07.457Z,5.90
2017-10-20T08:59:39.409Z,5.20
2017-10-20T09:02:11.464Z,5.73
2017-10-20T09:04:43.293Z,5.03
2017-10-20T09:07:15.345Z,5.97
2017-10-20T09:09:47.213Z,6.30
2017-10-20T09:12:19.466Z,5.60
2017-10-20T09:14:51.347Z,5.40
2017-10-20T09:17:23.313Z,6.30
2017-10-20T09:19:55.129Z,5.23
2017-10-20T09:22:26.875Z,4.83
2017-10-20T09:24:58.880Z,5.00
2017-10-20T09:27:30.486Z,5.07
2017-10-20T09:30:02.419Z,4.73
2017-10-20T09:32:34.320Z,6.17
2017-10-20T09:35:07.405Z,5.10
2017-10-20T09:37:39.389Z,5.67
2017-10-20T09:40:11.221Z,5.90
2017-10-20T09:42:43.284Z,6.00
2017-10-20T09:45:15.649Z,5.60
2017-10-20T09:47:47.623Z,4.60
2017-10-20T09:50:19.519Z,5.93
2017-10-20T09:52:51.333Z,5.60
2017-10-20T09:55:23.175Z,5.50
2017-10-20T09:57:55.324Z,5.97
2017-10-20T10:00:27.234Z,5.67
2017-10-20T10:02:59.244Z,6.10
2017-10-20T10:05:30.963Z,6.10
2017-10-20T10:08:02.945Z,5.47
2017-10-20T10:10:34.996Z,6.00
2017-10-20T10:13:07.122Z,5.37
2017-10-20T10:15:38.931Z,4.93
2017-10-20T10:18:10.834Z,5.40
2017-10-20T10:20:42.780Z,5.00
2017-10-20T10:23:14.747Z,5.73
2017-10-20T10:25:48.362Z,5.20
2017-10-20T10:28:20.312Z,5.43
2017-10-20T10:30:52.600Z,4.20
2017-10-20T10:33:24.617Z,6.33
2017-10-20T10:35:56.705Z,5.30
2017-10-20T10:38:28.873Z,6.33
2017-10-20T10:41:00.858Z,5.23
2017-10-20T10:43:32.483Z,5.80
2017-10-20T10:46:04.230Z,5.40
2017-10-20T10:48:36.227Z,5.60
2017-10-20T10:51:07.950Z,7.47
2017-10-20T10:53:41.547Z,7.60
2017-10-20T10:56:13.461Z,7.23
2017-10-20T10:58:45.193Z,7.20
2017-10-20T11:01:17.102Z,7.80
2017-10-20T11:03:49.165Z,7.90
2017-10-20T11:06:26.331Z,6.77
2017-10-20T11:09:15.180Z,7.47
2017-10-20T11:11:52.469Z,7.57
2017-10-20T11:14:24.367Z,6.87
2017-10-20T11:16:56.165Z,6.00
2017-10-20T11:19:28.241Z,7.10
2017-10-20T11:22:00.364Z,6.97
2017-10-20T11:24:32.521Z,8.60
2017-10-20T11:27:04.456Z,8.97
2017-10-20T11:29:36.253Z,7.30
2017-10-20T11:32:08.329Z,6.50
2017-10-20T11:34:40.305Z,6.60
2017-10-20T11:37:12.245Z,5.73
2017-10-20T11:39:44.254Z,6.37
2017-10-20T11:42:16.257Z,6.27
2017-10-20T11:44:48.383Z,8.20
2017-10-20T11:47:20.138Z,6.23
2017-10-20T11:49:51.841Z,6.80
2017-10-20T11:52:25.341Z,6.93
2017-10-20T11:54:57.490Z,6.20
2017-10-20T11:57:29.290Z,8.27
2017-10-20T12:00:02.480Z,7.40
2017-10-20T12:02:34.343Z,6.87
2017-10-20T12:05:07.177Z,6.63
2017-10-20T12:07:39.001Z,6.40
2017-10-20T12:10:10.884Z,7.63
2017-10-20T12:12:42.724Z,7.00
2017-10-20T12:15:15.235Z,9.20
2017-10-20T12:17:47.049Z,9.00
2017-10-20T12:20:18.803Z,8.30
2017-10-20T12:22:50.837Z,8.53
2017-10-20T12:25:22.951Z,9.00
2017-10-20T12:27:54.863Z,10.90
2017-10-20T12:30:26.759Z,10.57
2017-10-20T12:32:58.583Z,10.37
2017-10-20T12:35:30.492Z,10.10
2017-10-20T12:38:02.364Z,9.20
2017-10-20T12:40:34.334Z,8.27
2017-10-20T12:43:06.401Z,8.30
2017-10-20T12:45:42.064Z,8.30
2017-10-20T12:48:13.973Z,8.00
2017-10-20T12:50:46.098Z,8.70
2017-10-20T12:53:18.623Z,7.73
2017-10-20T12:55:50.743Z,7.77
2017-10-20T12:58:22.795Z,8.60
2017-10-20T13:00:55.879Z,8.77
2017-10-20T13:03:31.843Z,7.30
2017-10-20T13:06:04.134Z,7.30
2017-10-20T13:08:37.162Z,8.27
2017-10-20T13:11:09.047Z,7.93
2017-10-20T13:13:40.915Z,7.50
2017-10-20T13:16:13.312Z,8.17
2017-10-20T13:18:45.177Z,7.80
2017-10-20T13:21:17.106Z,7.50
2017-10-20T13:23:48.866Z,8.33
2017-10-20T13:26:20.718Z,9.50
2017-10-20T13:28:52.684Z,9.30
2017-10-20T13:31:24.651Z,10.00
2017-10-20T13:33:56.464Z,9.97
2017-10-20T13:36:29.488Z,10.37
2017-10-20T13:39:01.280Z,10.80
2017-10-20T13:41:33.266Z,9.60
2017-10-20T13:44:06.454Z,8.47
2017-10-20T13:46:38.335Z,9.80
2017-10-20T13:49:10.186Z,9.23
2017-10-20T13:51:42.072Z,9.87
2017-10-20T13:54:13.988Z,8.10
2017-10-20T13:56:45.859Z,8.23
2017-10-20T13:59:17.730Z,7.00
2017-10-20T14:01:49.615Z,8.60
2017-10-20T14:04:21.541Z,7.83
2017-10-20T14:06:53.490Z,9.07
2017-10-20T14:09:25.377Z,8.83
2017-10-20T14:11:57.570Z,10.03
2017-10-20T14:14:29.372Z,12.07
2017-10-20T14:17:02.695Z,11.00
2017-10-20T14:19:34.376Z,12.43
2017-10-20T14:22:06.473Z,9.40
2017-10-20T14:24:38.367Z,11.23
2017-10-20T14:27:10.282Z,9.70
2017-10-20T14:29:42.568Z,9.30
2017-10-20T14:32:14.520Z,9.30
2017-10-20T14:34:46.460Z,10.00
2017-10-20T14:37:18.299Z,10.50
2017-10-20T14:39:49.955Z,9.80
2017-10-20T14:42:21.930Z,11.40
2017-10-20T14:44:53.708Z,10.97
2017-10-20T14:47:26.137Z,10.47
2017-10-20T14:49:57.981Z,10.40
2017-10-20T14:52:30.446Z,11.90
2017-10-20T14:55:02.096Z,11.67
2017-10-20T14:57:34.051Z,9.73
2017-10-20T15:00:05.913Z,11.90
2017-10-20T15:02:38.057Z,9.83
2017-10-20T15:05:10.855Z,11.87
2017-10-20T15:07:42.741Z,11.07
2017-10-20T15:10:14.498Z,11.03
2017-10-20T15:12:47.836Z,12.90
2017-10-20T15:15:19.497Z,13.33
2017-10-20T15:17:51.865Z,14.53
2017-10-20T15:20:23.592Z,12.10
2017-10-20T15:22:55.518Z,12.27
2017-10-20T15:25:27.397Z,11.63
2017-10-20T15:28:00.522Z,12.37
2017-10-20T15:30:33.598Z,11.73
2017-10-20T15:33:05.637Z,11.20
2017-10-20T15:35:37.584Z,12.77
2017-10-20T15:38:09.582Z,13.50
2017-10-20T15:40:41.529Z,12.27
2017-10-20T15:43:13.276Z,12.10
2017-10-20T15:45:44.944Z,13.90
2017-10-20T15:48:16.925Z,12.50
2017-10-20T15:50:48.989Z,12.30
2017-10-20T15:53:20.723Z,12.17
2017-10-20T15:55:52.588Z,12.10
2017-10-20T15:58:25.479Z,13.70
2017-10-20T16:00:57.614Z,12.60
2017-10-20T16:03:29.517Z,13.10
2017-10-20T16:06:01.186Z,14.00
2017-10-20T16:08:33.273Z,14.43
2017-10-20T16:11:04.959Z,14.40
2017-10-20T16:13:36.878Z,11.90
2017-10-20T16:16:09.362Z,12.47
2017-10-20T16:18:43.060Z,13.87
2017-10-20T16:21:15.211Z,12.97
2017-10-20T16:23:47.054Z,13.30
2017-10-20T16:26:18.941Z,12.93
2017-10-20T16:28:50.806Z,13.63
2017-10-20T16:31:24.023Z,11.60
2017-10-20T16:33:58.234Z,13.13
2017-10-20T16:36:31.169Z,13.53
2017-10-20T16:39:02.748Z,14.50
2017-10-20T16:41:34.650Z,14.10
2017-10-20T16:44:06.897Z,16.50
2017-10-20T16:46:38.800Z,15.33
2017-10-20T16:49:10.616Z,14.53
2017-10-20T16:51:42.250Z,16.57
2017-10-20T16:54:13.969Z,18.40
2017-10-20T16:56:49.897Z,17.03
2017-10-20T16:59:22.191Z,16.43
2017-10-20T17:01:53.991Z,17.10
2017-10-20T17:04:25.785Z,16.63
2017-10-20T17:06:57.534Z,16.50
2017-10-20T17:09:29.589Z,14.83
2017-10-20T17:12:01.347Z,14.37
2017-10-20T17:14:33.282Z,11.90
2017-10-20T17:17:05.287Z,13.67
2017-10-20T17:19:39.204Z,14.83
2017-10-20T17:22:11.165Z,16.17
2017-10-20T17:24:42.929Z,14.57
2017-10-20T17:27:14.804Z,14.30
2017-10-20T17:29:46.725Z,15.90
2017-10-20T17:32:18.406Z,15.83
2017-10-20T17:34:50.411Z,14.23
2017-10-20T17:37:22.153Z,16.10
2017-10-20T17:39:54.197Z,17.90
2017-10-20T17:42:26.155Z,16.37
2017-10-20T17:44:58.172Z,14.27
2017-10-20T17:47:31.058Z,15.30
2017-10-20T17:50:02.805Z,15.50
2017-10-20T17:52:34.614Z,16.03
2017-10-20T17:55:06.449Z,15.40
2017-10-20T17:57:38.458Z,13.40
2017-10-20T18:00:14.533Z,14.33
2017-10-20T18:02:47.299Z,12.53
2017-10-20T18:05:19.174Z,12.07
2017-10-20T18:07:55.444Z,11.90
2017-10-20T18:10:27.404Z,12.10
2017-10-20T18:12:59.498Z,11.63
2017-10-20T18:15:31.430Z,10.73
2017-10-20T18:18:03.281Z,10.60
2017-10-20T18:20:35.294Z,11.80
2017-10-20T18:23:07.119Z,11.00
2017-10-20T18:25:39.366Z,11.00
2017-10-20T18:28:15.755Z,11.60
2017-10-20T18:30:47.649Z,11.30
2017-10-20T18:33:19.510Z,11.87
2017-10-20T18:35:51.188Z,10.70
2017-10-20T18:38:22.985Z,9.93
2017-10-20T18:40:54.972Z,8.53
2017-10-20T18:43:26.840Z,9.17
2017-10-20T18:45:58.663Z,10.00
2017-10-20T18:48:30.469Z,9.40
2017-10-20T18:51:02.375Z,8.77
2017-10-20T18:53:34.224Z,10.13
2017-10-20T18:56:06.892Z,9.23
2017-10-20T18:58:42.772Z,9.07
2017-10-20T19:01:14.658Z,10.63
2017-10-20T19:03:46.517Z,10.47
2017-10-20T19:06:18.522Z,10.10
2017-10-20T19:08:50.430Z,10.83
2017-10-20T19:11:23.795Z,10.60
2017-10-20T19:13:55.676Z,10.80
2017-10-20T19:16:27.535Z,10.23
2017-10-20T19:18:59.594Z,10.47
2017-10-20T19:21:31.612Z,9.77
2017-10-20T19:24:03.159Z,10.83
2017-10-20T19:26:35.081Z,10.90
2017-10-20T19:29:06.984Z,10.53
2017-10-20T19:31:38.819Z,10.70
2017-10-20T19:34:10.475Z,12.40
2017-10-20T19:36:42.471Z,11.23
2017-10-20T19:39:14.487Z,12.07
2017-10-20T19:41:46.439Z,12.10
2017-10-20T19:44:18.287Z,12.33
2017-10-20T19:46:50.260Z,15.73
2017-10-20T19:49:22.219Z,14.33
2017-10-20T19:51:54.204Z,14.20
2017-10-20T19:54:25.761Z,14.67
2017-10-20T19:56:58.179Z,15.30
2017-10-20T19:59:30.213Z,13.70
2017-10-20T20:02:02.208Z,13.10
2017-10-20T20:04:34.279Z,13.27
2017-10-20T20:07:06.253Z,14.57
2017-10-20T20:09:39.072Z,13.30
2017-10-20T20:12:11.199Z,13.67
2017-10-20T20:14:43.724Z,12.53
2017-10-20T20:17:15.636Z,12.10
2017-10-20T20:19:49.184Z,11.83
2017-10-20T20:22:21.242Z,12.60
2017-10-20T20:24:53.435Z,11.57
2017-10-20T20:27:26.389Z,10.83
2017-10-20T20:29:58.614Z,10.93
2017-10-20T20:32:49.066Z,11.47
2017-10-20T20:35:21.273Z,11.20
2017-10-20T20:37:53.346Z,11.30
2017-10-20T20:40:25.583Z,10.33
2017-10-20T20:42:58.247Z,10.70
2017-10-20T20:45:30.102Z,9.40
2017-10-20T20:48:02.102Z,9.47
2017-10-20T20:50:34.023Z,9.77
2017-10-20T20:53:05.947Z,8.50
2017-10-20T20:55:37.879Z,8.77
2017-10-20T20:58:10.177Z,9.23
2017-10-20T21:00:42.895Z,8.63
2017-10-20T21:03:14.851Z,8.30
2017-10-20T21:05:46.923Z,9.30
2017-10-20T21:08:18.865Z,8.30
2017-10-20T21:10:50.527Z,10.00
2017-10-20T21:13:22.214Z,9.33
2017-10-20T21:15:54.282Z,9.63
2017-10-20T21:18:26.098Z,8.90
2017-10-20T21:20:58.021Z,8.13
2017-10-20T21:23:30.021Z,9.07
2017-10-20T21:26:02.823Z,9.20
2017-10-20T21:28:34.976Z,9.20
2017-10-20T21:31:06.843Z,9.50
2017-10-20T21:33:38.801Z,9.60
2017-10-20T21:36:10.802Z,9.70
2017-10-20T21:38:42.940Z,10.20
2017-10-20T21:41:14.875Z,8.87
2017-10-20T21:43:46.911Z,9.27
2017-10-20T21:46:18.899Z,9.33
2017-10-20T21:48:50.969Z,9.17
2017-10-20T21:51:22.903Z,9.37
2017-10-20T21:53:54.795Z,9.47
2017-10-20T21:56:26.933Z,9.90
2017-10-20T21:58:59.395Z,9.40
2017-10-20T22:01:31.519Z,9.10
2017-10-20T22:04:03.858Z,8.67
2017-10-20T22:06:36.025Z,8.20
2017-10-20T22:09:08.117Z,8.40
2017-10-20T22:11:40.219Z,8.70
2017-10-20T22:14:12.140Z,8.87
2017-10-20T22:16:44.038Z,8.27
2017-10-20T22:19:16.338Z,9.20
2017-10-20T22:21:48.178Z,9.53
2017-10-20T22:24:20.247Z,8.90
2017-10-20T22:26:52.196Z,9.27
2017-10-20T22:29:24.928Z,9.13
2017-10-20T22:31:56.938Z,9.20
2017-10-20T22:34:29.007Z,9.40
2017-10-20T22:37:00.964Z,10.33
2017-10-20T22:39:32.771Z,10.80
2017-10-20T22:42:04.739Z,10.20
2017-10-20T22:44:36.715Z,10.13
2017-10-20T22:47:08.992Z,11.27
2017-10-20T22:49:42.069Z,10.80
2017-10-20T22:52:14.243Z,10.47
2017-10-20T22:54:46.191Z,10.27
2017-10-20T22:57:19.209Z,10.47
2017-10-20T22:59:51.497Z,11.03
2017-10-20T23:02:23.537Z,10.13
2017-10-20T23:04:55.781Z,9.97
2017-10-20T23:07:27.819Z,10.73
2017-10-20T23:10:01.489Z,10.60
2017-10-20T23:12:33.390Z,10.17
2017-10-20T23:15:05.469Z,10.07
2017-10-20T23:17:38.017Z,9.27
2017-10-20T23:20:10.184Z,9.20
2017-10-20T23:22:43.010Z,8.40
2017-10-20T23:25:15.197Z,9.50
2017-10-20T23:27:48.882Z,9.40
2017-10-20T23:30:20.654Z,10.17
2017-10-20T23:32:53.589Z,10.23
2017-10-20T23:35:25.788Z,8.73
2017-10-20T23:37:57.820Z,9.70
2017-10-20T23:40:39.297Z,10.23
2017-10-20T23:43:11.208Z,9.17
2017-10-20T23:45:46.384Z,9.23
2017-10-20T23:48:18.548Z,8.67
2017-10-20T23:50:51.803Z,9.57
2017-10-20T23:53:23.971Z,10.83
2017-10-20T23:55:55.862Z,10.53
2017-10-20T23:58:29.009Z,11.10
